Time,TemperatureF,DewpointF,PressureIn,WindDirection,WindDirectionDegrees,WindSpeedMPH,WindSpeedGustMPH,Humidity,HourlyPrecipIn,Conditions,Clouds,dailyrainin,SoftwareType,DateUTC
2013-01-29 00:14:00,70.8,67.0,30.70,South,175,10.0,-999.0,88,-99.99,,,0.00,weatherlink.com 1.10,2013-01-29 06:14:00,
2013-01-29 00:29:00,70.5,67.0,30.69,South,178,5.0,-999.0,89,-99.99,,,0.00,weatherlink.com 1.10,2013-01-29 06:29:00,
2013-01-29 00:50:00,70.3,67.0,30.69,SSE,165,11.0,-999.0,90,-99.99,,,0.00,weatherlink.com 1.10,2013-01-29 06:50:00,
2013-01-29 00:59:00,70.0,67.0,30.68,SW,214,4.0,-999.0,91,-99.99,,,0.00,weatherlink.com 1.10,2013-01-29 06:59:00,
2013-01-29 01:14:00,70.0,68.0,30.68,South,190,12.0,-999.0,92,-99.99,,,0.00,weatherlink.com 1.10,2013-01-29 07:14:00,
2013-01-29 01:29:00,70.0,67.0,30.67,SSW,209,15.0,-999.0,91,-99.99,,,0.00,weatherlink.com 1.10,2013-01-29 07:29:00,
2013-01-29 01:50:00,70.3,68.0,30.66,SSW,206,10.0,-999.0,91,-99.99,,,0.00,weatherlink.com 1.10,2013-01-29 07:50:00,
2013-01-29 01:59:00,70.4,68.0,30.65,SSW,205,10.0,-999.0,91,-99.99,,,0.00,weatherlink.com 1.10,2013-01-29 07:59:00,
2013-01-29 02:14:00,70.3,68.0,30.65,SSE,164,4.0,-999.0,91,-99.99,,,0.00,weatherlink.com 1.10,2013-01-29 08:14:00,
2013-01-29 02:29:00,70.6,68.0,30.65,South,191,10.0,-999.0,90,-99.99,,,0.00,weatherlink.com 1.10,2013-01-29 08:29:00,
2013-01-29 02:50:00,70.4,68.0,30.65,South,171,8.0,-999.0,91,-99.99,,,0.00,weatherlink.com 1.10,2013-01-29 08:50:00,
2013-01-29 02:59:00,70.2,68.0,30.64,South,173,10.0,-999.0,91,-99.99,,,0.00,weatherlink.com 1.10,2013-01-29 08:59:00,
2013-01-29 03:14:00,70.1,67.0,30.63,South,176,5.0,-999.0,91,-99.99,,,0.00,weatherlink.com 1.10,2013-01-29 09:14:00,
2013-01-29 03:29:00,70.0,68.0,30.63,South,188,5.0,-999.0,92,-99.99,,,0.00,weatherlink.com 1.10,2013-01-29 09:29:00,
2013-01-29 03:50:00,70.1,68.0,30.62,SSE,157,5.0,-999.0,92,-99.99,,,0.00,weatherlink.com 1.10,2013-01-29 09:50:00,
2013-01-29 03:59:00,70.1,67.0,30.61,South,173,3.0,-999.0,91,-99.99,,,0.00,weatherlink.com 1.10,2013-01-29 09:59:00,
2013-01-29 04:14:00,70.2,68.0,30.62,South,169,11.0,-999.0,91,-99.99,,,0.00,weatherlink.com 1.10,2013-01-29 10:14:00,
2013-01-29 04:29:00,70.2,68.0,30.61,South,187,5.0,-999.0,91,-99.99,,,0.00,weatherlink.com 1.10,2013-01-29 10:29:00,
2013-01-29 04:50:00,70.4,68.0,30.61,South,181,6.0,-999.0,91,-99.99,,,0.00,weatherlink.com 1.10,2013-01-29 10:50:00,
2013-01-29 04:59:00,70.4,67.0,30.61,SSW,198,7.0,-999.0,90,-99.99,,,0.00,weatherlink.com 1.10,2013-01-29 10:59:00,
2013-01-29 05:14:00,70.5,68.0,30.61,South,181,6.0,-999.0,90,-99.99,,,0.00,weatherlink.com 1.10,2013-01-29 11:14:00,
2013-01-29 05:29:00,70.5,68.0,30.61,South,175,6.0,-999.0,90,-99.99,,,0.00,weatherlink.com 1.10,2013-01-29 11:29:00,
2013-01-29 05:50:00,70.6,67.0,30.61,South,182,5.0,-999.0,89,-99.99,,,0.00,weatherlink.com 1.10,2013-01-29 11:50:00,
2013-01-29 05:59:00,70.5,67.0,30.61,South,169,9.0,-999.0,89,-99.99,,,0.00,weatherlink.com 1.10,2013-01-29 11:59:00,
2013-01-29 06:14:00,70.6,67.0,30.61,South,186,7.0,-999.0,89,-99.99,,,0.00,weatherlink.com 1.10,2013-01-29 12:14:00,
2013-01-29 06:29:00,70.5,67.0,30.61,SSE,166,8.0,-999.0,89,-99.99,,,0.00,weatherlink.com 1.10,2013-01-29 12:29:00,
2013-01-29 06:50:00,70.7,67.0,30.61,SSE,150,8.0,-999.0,88,-99.99,,,0.00,weatherlink.com 1.10,2013-01-29 12:50:00,
2013-01-29 06:59:00,70.8,67.0,30.61,SSE,160,10.0,-999.0,88,-99.99,,,0.00,weatherlink.com 1.10,2013-01-29 12:59:00,
2013-01-29 07:14:00,70.6,67.0,30.61,South,189,11.0,-999.0,89,-99.99,,,0.00,weatherlink.com 1.10,2013-01-29 13:14:00,
2013-01-29 07:29:00,70.5,67.0,30.60,South,181,6.0,-999.0,89,-99.99,,,0.00,weatherlink.com 1.10,2013-01-29 13:29:00,
2013-01-29 07:50:00,70.3,67.0,30.60,SSE,167,9.0,-999.0,90,-99.99,,,0.00,weatherlink.com 1.10,2013-01-29 13:50:00,
2013-01-29 07:59:00,70.0,67.0,30.61,SSE,163,10.0,-999.0,91,-99.99,,,0.00,weatherlink.com 1.10,2013-01-29 13:59:00,
2013-01-29 08:14:00,70.4,67.0,30.60,SSE,167,8.0,-999.0,90,-99.99,,,0.00,weatherlink.com 1.10,2013-01-29 14:14:00,
2013-01-29 08:29:00,70.8,68.0,30.60,SSE,160,11.0,-999.0,89,-99.99,,,0.00,weatherlink.com 1.10,2013-01-29 14:29:00,
2013-01-29 08:50:00,70.8,68.0,30.60,SSW,205,8.0,-999.0,89,-99.99,,,0.00,weatherlink.com 1.10,2013-01-29 14:50:00,
2013-01-29 08:59:00,71.1,68.0,30.59,South,170,6.0,-999.0,89,-99.99,,,0.00,weatherlink.com 1.10,2013-01-29 14:59:00,
2013-01-29 09:14:00,70.9,68.0,30.58,South,175,7.0,-999.0,91,-99.99,,,0.00,weatherlink.com 1.10,2013-01-29 15:14:00,
2013-01-29 09:29:00,71.4,68.0,30.57,SSE,159,6.0,-999.0,90,-99.99,,,0.00,weatherlink.com 1.10,2013-01-29 15:29:00,
2013-01-29 09:50:00,71.2,68.0,30.56,SE,142,10.0,-999.0,90,-99.99,,,0.00,weatherlink.com 1.10,2013-01-29 15:50:00,
2013-01-29 10:00:00,71.6,68.0,30.56,SSW,192,5.0,-999.0,89,-99.99,,,0.00,weatherlink.com 1.10,2013-01-29 16:00:00,
2013-01-29 10:15:00,73.0,69.0,30.55,South,169,12.0,-999.0,87,-99.99,,,0.00,weatherlink.com 1.10,2013-01-29 16:15:00,
2013-01-29 10:30:00,73.3,68.0,30.54,South,183,11.0,-999.0,84,-99.99,,,0.00,weatherlink.com 1.10,2013-01-29 16:30:00,
2013-01-29 10:51:00,73.5,68.0,30.54,SSE,159,13.0,-999.0,83,-99.99,,,0.00,weatherlink.com 1.10,2013-01-29 16:51:00,
2013-01-29 11:00:00,74.2,68.0,30.53,SSW,193,13.0,-999.0,82,-99.99,,,0.00,weatherlink.com 1.10,2013-01-29 17:00:00,
2013-01-29 11:15:00,74.2,68.0,30.52,South,184,16.0,-999.0,81,-99.99,,,0.00,weatherlink.com 1.10,2013-01-29 17:15:00,
2013-01-29 11:30:00,74.2,68.0,30.51,SSW,196,14.0,-999.0,80,-99.99,,,0.00,weatherlink.com 1.10,2013-01-29 17:30:00,
2013-01-29 11:51:00,74.3,68.0,30.50,SW,232,23.0,-999.0,80,-99.99,,,0.00,weatherlink.com 1.10,2013-01-29 17:51:00,
2013-01-29 12:00:00,74.8,68.0,30.48,South,182,18.0,-999.0,78,-99.99,,,0.00,weatherlink.com 1.10,2013-01-29 18:00:00,
2013-01-29 12:15:00,74.7,68.0,30.47,SSW,196,15.0,-999.0,79,-99.99,,,0.00,weatherlink.com 1.10,2013-01-29 18:15:00,
2013-01-29 12:30:00,75.0,68.0,30.46,South,182,15.0,-999.0,78,-99.99,,,0.00,weatherlink.com 1.10,2013-01-29 18:30:00,
2013-01-29 12:51:00,75.1,68.0,30.45,South,187,9.0,-999.0,78,-99.99,,,0.00,weatherlink.com 1.10,2013-01-29 18:51:00,
2013-01-29 13:00:00,75.1,68.0,30.44,SW,220,17.0,-999.0,78,-99.99,,,0.00,weatherlink.com 1.10,2013-01-29 19:00:00,
2013-01-29 13:15:00,75.3,68.0,30.42,SSW,210,15.0,-999.0,78,-99.99,,,0.00,weatherlink.com 1.10,2013-01-29 19:15:00,
2013-01-29 13:30:00,76.3,69.0,30.41,South,174,13.0,-999.0,77,-99.99,,,0.00,weatherlink.com 1.10,2013-01-29 19:30:00,
2013-01-29 13:51:00,76.7,69.0,30.40,South,180,11.0,-999.0,77,-99.99,,,0.00,weatherlink.com 1.10,2013-01-29 19:51:00,
2013-01-29 14:00:00,76.9,69.0,30.39,SSW,204,18.0,-999.0,76,-99.99,,,0.00,weatherlink.com 1.10,2013-01-29 20:00:00,
2013-01-29 14:15:00,77.2,69.0,30.38,South,188,0.0,-999.0,75,-99.99,,,0.00,weatherlink.com 1.10,2013-01-29 20:15:00,
2013-01-29 14:30:00,77.3,69.0,30.37,South,184,0.0,-999.0,75,-99.99,,,0.00,weatherlink.com 1.10,2013-01-29 20:30:00,
2013-01-29 14:51:00,77.1,69.0,30.36,South,179,0.0,-999.0,75,-99.99,,,0.00,weatherlink.com 1.10,2013-01-29 20:51:00,
2013-01-29 14:59:00,76.8,68.0,30.35,SW,221,0.0,-999.0,75,-99.99,,,0.00,weatherlink.com 1.10,2013-01-29 20:59:00,
2013-01-29 15:14:00,76.7,69.0,30.35,South,170,0.0,-999.0,76,-99.99,,,0.00,weatherlink.com 1.10,2013-01-29 21:14:00,
2013-01-29 15:29:00,76.6,69.0,30.35,SSW,193,0.0,-999.0,76,-99.99,,,0.00,weatherlink.com 1.10,2013-01-29 21:29:00,
2013-01-29 15:44:00,76.5,68.0,30.35,SSW,202,0.0,-999.0,76,-99.99,,,0.00,weatherlink.com 1.10,2013-01-29 21:44:00,
2013-01-29 16:00:00,76.4,69.0,30.34,South,187,0.0,-999.0,77,-99.99,,,0.00,weatherlink.com 1.10,2013-01-29 22:00:00,
2013-01-29 16:15:00,76.4,69.0,30.34,SSW,202,0.0,-999.0,77,-99.99,,,0.00,weatherlink.com 1.10,2013-01-29 22:15:00,
2013-01-29 16:30:00,75.8,69.0,30.33,SSW,195,0.0,-999.0,78,-99.99,,,0.00,weatherlink.com 1.10,2013-01-29 22:30:00,
2013-01-29 16:51:00,75.6,68.0,30.33,SSW,212,0.0,-999.0,78,-99.99,,,0.00,weatherlink.com 1.10,2013-01-29 22:51:00,
2013-01-29 17:00:00,75.3,68.0,30.33,SSE,161,0.0,-999.0,79,-99.99,,,0.00,weatherlink.com 1.10,2013-01-29 23:00:00,
2013-01-29 17:15:00,74.9,68.0,30.32,South,174,0.0,-999.0,80,-99.99,,,0.00,weatherlink.com 1.10,2013-01-29 23:15:00,
2013-01-29 17:30:00,74.5,68.0,30.33,South,187,0.0,-999.0,81,-99.99,,,0.00,weatherlink.com 1.10,2013-01-29 23:30:00,
2013-01-29 17:51:00,74.2,68.0,30.32,South,187,0.0,-999.0,82,-99.99,,,0.00,weatherlink.com 1.10,2013-01-29 23:51:00,
2013-01-29 18:00:00,74.0,69.0,30.33,SSW,211,0.0,-999.0,83,-99.99,,,0.00,weatherlink.com 1.10,2013-01-30 00:00:00,
2013-01-29 18:15:00,73.8,68.0,30.33,South,182,0.0,-999.0,83,-99.99,,,0.00,weatherlink.com 1.10,2013-01-30 00:15:00,
2013-01-29 18:30:00,73.6,68.0,30.32,SSW,200,0.0,-999.0,83,-99.99,,,0.00,weatherlink.com 1.10,2013-01-30 00:30:00,
2013-01-29 18:51:00,73.5,68.0,30.33,SSE,165,0.0,-999.0,84,-99.99,,,0.00,weatherlink.com 1.10,2013-01-30 00:51:00,
2013-01-29 19:00:00,73.4,68.0,30.33,South,182,0.0,-999.0,84,-99.99,,,0.00,weatherlink.com 1.10,2013-01-30 01:00:00,
2013-01-29 19:15:00,73.4,68.0,30.33,SSW,210,0.0,-999.0,84,-99.99,,,0.00,weatherlink.com 1.10,2013-01-30 01:15:00,
2013-01-29 19:30:00,73.3,69.0,30.34,SSW,211,0.0,-999.0,85,-99.99,,,0.00,weatherlink.com 1.10,2013-01-30 01:30:00,
2013-01-29 19:51:00,73.4,69.0,30.40,North,355,0.0,-999.0,85,-99.99,,,0.00,weatherlink.com 1.10,2013-01-30 01:51:00,
2013-01-29 20:00:00,65.9,57.0,30.47,SW,218,0.0,-999.0,74,-99.99,,,0.02,weatherlink.com 1.10,2013-01-30 02:00:00,
2013-01-29 20:15:00,59.8,56.0,30.47,NNW,348,0.0,-999.0,87,-99.99,,,0.04,weatherlink.com 1.10,2013-01-30 02:15:00,
2013-01-29 20:30:00,58.4,55.0,30.48,NNW,345,0.0,-999.0,87,-99.99,,,0.04,weatherlink.com 1.10,2013-01-30 02:30:00,
2013-01-29 20:52:00,58.0,54.0,30.48,NNW,338,0.0,-999.0,87,-99.99,,,0.04,weatherlink.com 1.10,2013-01-30 02:52:00,
2013-01-29 21:00:00,57.8,54.0,30.48,NNW,336,0.0,-999.0,87,-99.99,,,0.04,weatherlink.com 1.10,2013-01-30 03:00:00,
2013-01-29 21:15:00,57.7,54.0,30.48,NNW,333,0.0,-999.0,87,-99.99,,,0.04,weatherlink.com 1.10,2013-01-30 03:15:00,
2013-01-29 21:30:00,57.7,54.0,30.49,NNW,340,0.0,-999.0,87,-99.99,,,0.04,weatherlink.com 1.10,2013-01-30 03:30:00,
2013-01-29 21:45:00,57.7,54.0,30.49,NNW,340,0.0,-999.0,88,-99.99,,,0.04,weatherlink.com 1.10,2013-01-30 03:45:00,
2013-01-29 22:01:00,57.5,54.0,30.54,NW,325,0.0,-999.0,89,-99.99,,,0.11,weatherlink.com 1.10,2013-01-30 04:01:00,
2013-01-29 22:16:00,56.4,53.0,30.51,NNW,334,0.0,-999.0,87,-99.99,,,0.11,weatherlink.com 1.10,2013-01-30 04:16:00,
2013-01-29 22:31:00,56.5,53.0,30.53,NNW,334,0.0,-999.0,89,-99.99,,,0.11,weatherlink.com 1.10,2013-01-30 04:31:00,
2013-01-29 22:52:00,56.8,54.0,30.53,NNW,334,0.0,-999.0,90,-99.99,,,0.11,weatherlink.com 1.10,2013-01-30 04:52:00,
2013-01-29 23:16:00,56.8,54.0,30.55,NNW,334,0.0,-999.0,91,-99.99,,,0.11,weatherlink.com 1.10,2013-01-30 05:16:00,
2013-01-29 23:31:00,56.6,54.0,30.55,NNW,334,0.0,-999.0,91,-99.99,,,0.11,weatherlink.com 1.10,2013-01-30 05:31:00,
2013-01-29 23:53:00,56.1,53.0,30.55,NNW,334,0.0,-999.0,90,-99.99,,,0.00,weatherlink.com 1.10,2013-01-30 05:53:00,